Latest Weather Observations for Mount Nowa Nowa

IDV60801

Issued at 1:32 pm EST Tuesday 30 May 2017 (issued every 30 minutes, with the page automatically refreshed every 10 minutes)

About weather observations | Map of weather stations | Latest weather observations for VIC | Other Formats
Station Details ID: 084144 Name: MOUNT NOWA NOWA Lat: -37.69 Lon: 148.09 Height: 350.0 m
Data from the previous 72 hours. | See also: Recent months at Mount Nowa Nowa
Date/Time
EST
Temp
°C
App
Temp
°C
Dew
Point
°C
Rel
Hum
%
Delta-T
°C
Wind Press
QNH
hPa
Press
MSL
hPa
Rain since
9am
mm
Dir  Spd
km/h
Gust
km/h
Spd
kts
Gust
kts
30/01:30pm 8.5 4.7 6.0 84 1.2 W 15 32 8 17 - - 0.0
30/01:00pm 9.2 5.8 5.8 79 1.6 W 13 26 7 14 - - 0.0
30/12:30pm 9.6 6.2 6.0 78 1.7 W 13 24 7 13 - - 0.0
30/12:00pm 10.3 7.5 5.3 71 2.3 W 9 20 5 11 - - 0.0
30/11:30am 10.2 6.9 4.4 67 2.6 WNW 11 19 6 10 - - 0.0
30/11:00am 10.6 7.2 3.9 63 3.0 WNW 11 17 6 9 - - 0.0
30/10:30am 10.4 7.0 3.9 64 2.9 WNW 11 19 6 10 - - 0.0
30/10:00am 10.2 6.7 3.7 64 2.9 WNW 11 24 6 13 - - 0.0
30/09:30am 9.9 6.4 3.4 64 2.9 NW 11 20 6 11 - - 0.0
30/09:00am 9.7 5.8 3.2 64 2.9 NW 13 20 7 11 - - 0.0
30/08:30am 9.3 5.3 2.9 64 2.8 NW 13 20 7 11 - - 0.0
30/08:00am 8.6 3.8 2.6 66 2.6 NW 17 30 9 16 - - 0.0
30/07:30am 8.0 3.6 2.5 68 2.3 NW 15 24 8 13 - - 0.0
30/07:00am 7.9 3.8 2.4 68 2.3 NW 13 20 7 11 - - 0.0
30/06:30am 7.9 3.4 2.4 68 2.3 NW 15 24 8 13 - - 0.0
30/06:00am 8.1 3.3 2.4 67 2.4 NNW 17 28 9 15 - - 0.0
30/05:30am 7.9 2.5 2.4 68 2.3 NNW 20 32 11 17 - - 0.0
30/05:00am 8.1 2.3 2.4 67 2.4 NNW 22 33 12 18 - - 0.0
30/04:30am 8.0 2.6 2.3 67 2.4 NNW 20 30 11 16 - - 0.0
30/04:00am 8.0 3.1 2.0 66 2.5 NW 17 28 9 15 - - 0.0
30/03:30am 7.8 2.9 2.1 67 2.4 NW 17 24 9 13 - - 0.0
30/03:00am 7.7 2.4 2.0 67 2.4 NW 19 32 10 17 - - 0.0
30/02:30am 7.7 2.4 2.0 67 2.4 NW 19 30 10 16 - - 0.0
30/02:00am 7.7 2.4 1.8 66 2.5 NNW 19 28 10 15 - - 0.0
30/01:30am 7.6 2.6 1.5 65 2.5 NW 17 28 9 15 - - 0.0
30/01:00am 7.1 2.5 1.4 67 2.3 NW 15 28 8 15 - - 0.0
30/12:30am 6.6 2.4 1.5 70 2.1 NW 13 17 7 9 - - 0.0
30/12:00am 6.7 1.7 1.6 70 2.1 NW 17 24 9 13 - - 0.0
 
Date/Time
EST
Temp
°C
App
Temp
°C
Dew
Point
°C
Rel
Hum
%
Delta-T
°C
Wind Press
QNH
hPa
Press
MSL
hPa
Rain since
9am
mm
Dir  Spd
km/h
Gust
km/h
Spd
kts
Gust
kts
29/11:30pm 6.8 1.9 1.7 70 2.1 NW 17 22 9 12 - - 0.0
29/11:00pm 6.4 2.2 1.5 71 2.0 NW 13 17 7 9 - - 0.0
29/10:30pm 7.0 2.4 1.5 68 2.3 NW 15 20 8 11 - - 0.0
29/10:00pm 7.0 2.4 1.5 68 2.3 NW 15 30 8 16 - - 0.0
29/09:30pm 7.3 2.7 1.6 67 2.4 NW 15 22 8 12 - - 0.0
29/09:00pm 7.2 3.0 1.7 68 2.3 NW 13 19 7 10 - - 0.0
29/08:30pm 7.4 3.2 1.9 68 2.3 NW 13 19 7 10 - - 0.0
29/08:00pm 8.0 4.6 2.0 66 2.5 NW 9 15 5 8 - - 0.0
29/07:30pm 8.6 4.8 2.0 63 2.8 NW 11 17 6 9 - - 0.0
29/07:00pm 8.9 5.9 2.3 63 2.8 WNW 7 11 4 6 - - 0.0
29/06:30pm 9.0 6.4 3.2 67 2.5 WNW 6 9 3 5 - - 0.0
29/06:00pm 9.4 6.2 3.2 65 2.7 W 9 19 5 10 - - 0.0
29/05:30pm 9.3 6.5 3.3 66 2.6 W 7 17 4 9 - - 0.0
29/05:00pm 9.6 6.8 3.1 64 2.9 W 7 13 4 7 - - 0.0
29/04:30pm 10.4 7.6 3.0 60 3.3 W 7 13 4 7 - - 0.0
29/04:00pm 10.5 7.8 2.8 59 3.4 W 6 13 3 7 - - 0.0
29/03:30pm 11.1 8.3 3.4 59 3.5 W 7 13 4 7 - - 0.0
29/03:00pm 12.1 9.4 3.6 56 3.9 W 7 13 4 7 - - 0.0
29/02:30pm 12.9 9.7 3.0 51 4.5 W 9 19 5 10 - - 0.0
29/02:00pm 11.9 8.2 2.6 53 4.1 W 11 20 6 11 - - 0.0
29/01:30pm 11.9 9.3 3.4 56 3.8 W 6 13 3 7 - - 0.0
29/01:00pm 11.0 7.7 2.6 56 3.7 W 9 19 5 10 - - 0.0
29/12:30pm 11.4 8.1 2.7 55 3.9 W 9 17 5 9 - - 0.0
29/12:00pm 11.4 7.4 2.7 55 3.9 W 13 24 7 13 - - 0.0
29/11:30am 10.8 6.4 2.6 57 3.6 W 15 33 8 18 - - 0.0
29/11:00am 10.6 7.0 3.2 60 3.3 W 11 28 6 15 - - 0.0
29/10:30am 10.1 6.5 3.2 62 3.1 W 11 26 6 14 - - 0.0
29/10:00am 9.3 6.1 3.1 65 2.7 W 9 20 5 11 - - 0.0
29/09:30am 8.0 4.6 1.8 65 2.6 WNW 9 22 5 12 - - 0.0
29/09:00am 7.2 3.7 1.5 67 2.4 WNW 9 19 5 10 - - 0.6
29/08:30am 6.6 3.1 1.1 68 2.2 WNW 9 17 5 9 - - 0.6
29/08:00am 6.2 2.3 0.9 69 2.1 WNW 11 17 6 9 - - 0.6
29/07:30am 6.2 1.9 0.9 69 2.1 W 13 19 7 10 - - 0.6
29/07:00am 6.0 1.3 1.0 70 2.0 W 15 22 8 12 - - 0.6
29/06:30am 6.1 1.4 1.1 70 2.0 W 15 20 8 11 - - 0.6
29/06:00am 6.2 1.5 1.1 70 2.1 W 15 20 8 11 - - 0.6
29/05:30am 6.2 1.5 1.1 70 2.1 W 15 22 8 12 - - 0.6
29/05:00am 6.3 1.6 1.2 70 2.1 W 15 26 8 14 - - 0.6
29/04:30am 6.4 1.4 1.1 69 2.2 W 17 24 9 13 - - 0.6
29/04:00am 6.4 1.8 1.5 71 2.0 W 15 26 8 14 - - 0.6
29/03:30am 6.2 1.2 1.5 72 1.9 W 17 24 9 13 - - 0.6
29/03:00am 6.3 1.3 1.4 71 2.0 W 17 30 9 16 - - 0.6
29/02:30am 6.2 2.0 1.5 72 1.9 W 13 19 7 10 - - 0.6
29/02:00am 6.2 1.6 1.5 72 1.9 W 15 19 8 10 - - 0.6
29/01:30am 6.5 1.9 1.6 71 2.0 W 15 22 8 12 - - 0.6
29/01:00am 6.5 1.9 1.8 72 1.9 W 15 20 8 11 - - 0.6
29/12:30am 6.6 1.7 2.1 73 1.9 W 17 19 9 10 - - 0.6
29/12:00am 6.4 2.3 2.5 76 1.6 W 13 17 7 9 - - 0.6
 
Date/Time
EST
Temp
°C
App
Temp
°C
Dew
Point
°C
Rel
Hum
%
Delta-T
°C
Wind Press
QNH
hPa
Press
MSL
hPa
Rain since
9am
mm
Dir  Spd
km/h
Gust
km/h
Spd
kts
Gust
kts
28/11:30pm 6.3 2.7 3.1 80 1.4 W 11 15 6 8 - - 0.6
28/11:00pm 6.6 3.5 3.6 81 1.3 WNW 9 13 5 7 - - 0.6
28/10:30pm 6.4 4.0 4.2 86 1.0 WNW 6 9 3 5 - - 0.6
28/10:00pm 6.6 4.5 4.1 84 1.1 WNW 4 9 2 5 - - 0.6
28/09:30pm 6.8 4.2 4.1 83 1.2 WNW 7 11 4 6 - - 0.6
28/09:00pm 6.6 4.3 4.6 87 0.9 WNW 6 11 3 6 - - 0.6
28/08:30pm 6.7 3.8 4.5 86 1.0 W 9 22 5 12 - - 0.6
28/08:00pm 6.6 3.3 4.6 87 0.9 W 11 20 6 11 - - 0.6
28/07:30pm 6.9 4.4 4.9 87 0.9 WSW 7 15 4 8 - - 0.6
28/07:00pm 8.5 6.4 5.8 83 1.3 WNW 6 7 3 4 - - 0.6
28/06:30pm 8.9 6.0 4.7 75 1.9 W 9 13 5 7 - - 0.4
28/06:00pm 8.0 5.3 5.6 85 1.1 W 9 11 5 6 - - 0.4
28/05:30pm 8.1 5.7 5.2 82 1.3 W 7 11 4 6 - - 0.4
28/05:00pm 8.6 6.4 5.2 79 1.6 WSW 6 11 3 6 - - 0.4
28/04:30pm 9.9 8.5 7.2 83 1.3 WSW 4 6 2 3 - - 0.4
28/04:00pm 10.6 9.5 7.1 79 1.7 SW 2 4 1 2 - - 0.4
28/03:30pm 11.4 10.3 6.9 74 2.2 WNW 2 4 1 2 - - 0.4
28/03:00pm 12.3 10.9 7.4 72 2.4 WSW 4 7 2 4 - - 0.4
28/02:30pm 10.7 9.7 7.2 79 1.7 WNW 2 6 1 3 - - 0.4
28/02:00pm 10.6 9.6 7.5 81 1.5 W 2 7 1 4 - - 0.4
28/01:30pm 9.5 7.8 7.6 88 0.9 SW 6 11 3 6 - - 0.4
28/01:00pm 9.6 7.8 7.9 89 0.8 SSW 7 11 4 6 - - 0.4
28/12:30pm 10.3 9.4 9.1 92 0.6 SW 4 7 2 4 - - 0.4
28/12:00pm 10.4 9.0 8.7 89 0.9 WSW 6 9 3 5 - - 0.2
28/11:30am 11.1 9.5 8.8 86 1.2 WSW 7 17 4 9 - - 0.2
28/11:00am 15.2 13.3 7.5 60 3.9 WNW 7 13 4 7 - - 0.0
28/10:30am 14.2 12.4 7.9 66 3.2 NW 7 15 4 8 - - 0.0
28/10:00am 12.7 10.8 7.6 71 2.5 WNW 7 17 4 9 - - 0.0
28/09:30am 11.6 9.8 8.1 79 1.7 NW 7 13 4 7 - - 0.0
28/09:00am 10.9 8.3 7.6 80 1.6 NW 11 24 6 13 - - 1.0
28/08:30am 10.8 6.7 7.7 81 1.5 NNW 19 33 10 18 - - 1.0
28/08:00am 11.5 8.4 7.2 75 2.1 NW 13 19 7 10 - - 0.8
28/07:30am 11.1 9.3 7.2 77 1.9 NW 6 9 3 5 - - 0.8
28/07:00am 10.7 9.0 7.6 81 1.5 NW 6 9 3 5 - - 0.8
28/06:30am 9.8 8.2 8.2 90 0.8 WNW 6 7 3 4 - - 0.8
28/06:00am 9.5 7.0 8.3 92 0.6 W 11 26 6 14 - - 0.8
28/05:30am 14.1 10.3 5.7 57 4.1 NW 15 26 8 14 - - 0.0
28/05:00am 14.1 9.5 5.5 56 4.1 NW 19 33 10 18 - - 0.0
28/04:30am 14.3 9.7 5.4 55 4.3 NW 19 28 10 15 - - 0.0
28/04:00am 14.4 9.8 5.5 55 4.3 NW 19 35 10 19 - - 0.0
28/03:30am 14.2 9.6 5.6 56 4.1 NW 19 33 10 18 - - 0.0
28/03:00am 13.7 10.7 5.8 59 3.8 NNW 11 22 6 12 - - 0.0
28/02:30am 14.1 9.9 5.7 57 4.1 NNW 17 35 9 19 - - 0.0
28/02:00am 13.5 10.0 5.4 58 3.9 NNW 13 30 7 16 - - 0.0
28/01:30am 13.8 10.2 4.9 55 4.2 NNW 13 22 7 12 - - 0.0
28/01:00am 14.1 10.1 4.9 54 4.4 NNW 15 33 8 18 - - 0.0
28/12:30am 13.9 10.0 5.3 56 4.1 NNW 15 28 8 15 - - 0.0
28/12:00am 13.8 10.2 4.9 55 4.2 NNW 13 22 7 12 - - 0.0
 
Date/Time
EST
Temp
°C
App
Temp
°C
Dew
Point
°C
Rel
Hum
%
Delta-T
°C
Wind Press
QNH
hPa
Press
MSL
hPa
Rain since
9am
mm
Dir  Spd
km/h
Gust
km/h
Spd
kts
Gust
kts
27/11:30pm 13.8 9.0 5.4 57 4.0 NNW 20 35 11 19 - - 0.0
27/11:00pm 13.3 9.7 5.2 58 3.8 NNW 13 24 7 13 - - 0.0
27/10:30pm 13.1 10.0 5.5 60 3.6 NNW 11 24 6 13 - - 0.0
27/10:00pm 13.3 9.8 5.5 59 3.7 NW 13 24 7 13 - - 0.0
27/09:30pm 13.0 9.1 5.4 60 3.6 NW 15 33 8 18 - - 0.0
27/09:00pm 12.6 10.2 5.1 60 3.5 N 7 17 4 9 - - 0.0
27/08:30pm 12.9 10.0 4.8 58 3.8 N 9 15 5 8 - - 0.0
27/08:00pm 12.5 9.7 5.2 61 3.4 N 9 17 5 9 - - 0.0
27/07:30pm 13.4 10.5 4.8 56 4.1 N 9 17 5 9 - - 0.0
27/07:00pm 13.9 10.6 4.5 53 4.4 N 11 20 6 11 - - 0.0
27/06:30pm 13.9 10.2 4.5 53 4.4 NNW 13 20 7 11 - - 0.0
27/06:00pm 14.2 10.1 4.5 52 4.6 NNW 15 26 8 14 - - 0.0
27/05:30pm 14.6 10.5 4.6 51 4.7 NNW 15 24 8 13 - - 0.0
27/05:00pm 15.0 11.0 4.7 50 4.9 NNW 15 24 8 13 - - 0.0
27/04:30pm 15.3 12.1 5.0 50 4.9 NNW 11 20 6 11 - - 0.0
27/04:00pm 16.1 13.0 5.7 50 5.1 N 11 26 6 14 - - 0.0
27/03:30pm 16.8 14.5 5.7 48 5.5 NNW 7 17 4 9 - - 0.0
27/03:00pm 17.6 15.1 6.5 48 5.6 NNW 9 15 5 8 - - 0.0
27/02:30pm 17.5 14.1 5.8 46 5.8 NNW 13 22 7 12 - - 0.0
27/02:00pm 18.0 15.7 5.9 45 6.0 NW 7 20 4 11 - - 0.0

Other Formats:

Comma delimited format used in spreadsheet applications
http://www.bom.gov.au/fwo/IDV60801/IDV60801.94930.axf

JavaScript Object Notation format (JSON) in row-major order
http://www.bom.gov.au/fwo/IDV60801/IDV60801.94930.json